Página principal
METAR-TAF:

METAR-TAF

Aeroportos :

Childress, Texas, Estados Unidos

latitude: 34-25-39N, longitude: 100-17-00W, altura: 595 m

Observação actual do tempo

O boletim foi feito há 1 hora e 11 minutos, às 14:53 UTC
Vento 7 kt de nor-noroeste
Temperatura 1°C
Humidade 69%
Pressão 1016 hPa
Visibilidade: 16.1 km
Céu limpo

METAR: KCDS 171453Z AUTO 33007KT 10SM CLR 01/M04 A2999 RMK AO2 SLP163 T00061039 53026

Hora: 10:04 (16:04 UTC)

Previsão

O boletim foi feito há 4 horas e 29 minutos, às 11:35 UTC
Previsão válida de 17 às 12 UTC a 18 às 12 UTC
Vento 6 kt com direcção variável
Visibilidade: 10 km
Poucas nuvensa uma altura de 25000 ft

TAF: KCDS 171135Z 1712/1812 VRB06KT P6SM FEW250

Observações e previsões do tempo de mais de 4000 aeroportos (mensagens METAR e TAF).

As estações disponíveis são os pontos amarelos e vermelhos sobre o mapa.

Mova o rato sobre o mapa para ver o nome da estação.

Depois clique no ponto para visualizar as observações e previsões meteorológicas.

Para alterar o mapa : clique nos botões verdes com uma cruz preta para aumentar o zoom; no botão verde com uma pitada de zoom; ou nas setas verdes para mapas adjacentes.


METAR-TAF: